Time;durP1;ratioP1;P1;durP2;ratioP2;P2;SDS_P1;SDS_P2;PMS_P1;PMS_P2;Temp;Humidity;BMP_temperature;BMP_pressure;BME280_temperature;BME280_humidity;BME280_pressure;Samples;Min_cycle;Max_cycle;Signal;HPM_P1;HPM_P2
2022/07/10 00:01:05;;;;;;;1.98;1.73;;;;;;;20.69;48.98;97965.41;4957476;28;20207;-77
2022/07/10 00:03:31;;;;;;;1.98;1.40;;;;;;;20.66;48.99;97973.94;4925207;28;20326;-76
2022/07/10 00:05:56;;;;;;;2.97;1.13;;;;;;;20.57;49.46;97963.19;4946057;28;20204;-77
2022/07/10 00:08:22;;;;;;;3.88;1.52;;;;;;;20.55;49.35;97969.88;4910944;28;20173;-76
2022/07/10 00:10:47;;;;;;;2.78;1.65;;;;;;;20.40;49.65;97963.72;4963535;28;20115;-76
2022/07/10 00:13:13;;;;;;;1.90;1.63;;;;;;;20.49;49.29;97963.84;4930681;28;20202;-77
2022/07/10 00:15:38;;;;;;;4.47;1.95;;;;;;;20.41;49.80;97964.53;4963782;28;20191;-76
2022/07/10 00:18:04;;;;;;;2.38;1.48;;;;;;;20.29;49.81;97962.34;4944035;28;20218;-77
2022/07/10 00:20:29;;;;;;;3.53;2.30;;;;;;;20.32;49.95;97964.41;4963855;28;20199;-77
2022/07/10 00:22:55;;;;;;;2.38;1.73;;;;;;;20.29;49.96;97961.53;4963188;28;20279;-77
2022/07/10 00:25:20;;;;;;;2.22;1.63;;;;;;;20.20;50.27;97969.34;4947496;28;20204;-76
2022/07/10 00:27:45;;;;;;;3.10;1.77;;;;;;;20.23;49.94;97968.75;4947411;28;20250;-76
2022/07/10 00:30:11;;;;;;;1.50;1.30;;;;;;;20.11;50.14;97979.00;4930985;28;20208;-76
2022/07/10 00:32:37;;;;;;;4.25;1.52;;;;;;;20.17;50.13;97975.22;4979562;28;20720;-77
2022/07/10 00:35:03;;;;;;;2.85;1.60;;;;;;;20.07;50.27;97970.84;4942855;28;20197;-76
2022/07/10 00:37:29;;;;;;;3.80;1.45;;;;;;;20.04;50.40;97973.28;4959139;28;20187;-76
2022/07/10 00:39:54;;;;;;;2.42;2.08;;;;;;;20.00;50.39;97970.44;4980264;28;20219;-76
2022/07/10 00:42:20;;;;;;;1.90;1.30;;;;;;;20.01;50.18;97967.50;4946693;28;20719;-76
2022/07/10 00:44:45;;;;;;;2.42;1.23;;;;;;;20.00;50.41;97973.84;4958919;28;20207;-76
2022/07/10 00:47:11;;;;;;;1.98;1.50;;;;;;;19.95;50.61;97973.16;4946906;28;20210;-76
2022/07/10 00:49:38;;;;;;;1.73;1.20;;;;;;;19.81;50.82;97981.78;4963396;28;20374;-76
2022/07/10 00:52:06;;;;;;;1.55;1.40;;;;;;;19.49;51.63;97971.84;4946585;28;20205;-77
2022/07/10 00:54:33;;;;;;;2.28;1.60;;;;;;;19.41;52.23;97964.53;4946427;28;20253;-76
2022/07/10 00:56:59;;;;;;;4.57;1.83;;;;;;;19.45;52.04;97966.34;4963191;28;20200;-77
2022/07/10 00:59:25;;;;;;;1.88;1.40;;;;;;;19.33;52.52;97970.44;4961202;28;20657;-76
2022/07/10 01:01:50;;;;;;;6.60;2.95;;;;;;;19.25;52.91;97972.63;4927729;28;20279;-77
2022/07/10 01:04:16;;;;;;;2.63;1.42;;;;;;;19.36;52.56;97977.81;4945195;28;20723;-76
2022/07/10 01:06:42;;;;;;;2.40;1.80;;;;;;;19.26;52.61;97976.84;4962814;28;20226;-76
2022/07/10 01:09:07;;;;;;;2.95;1.65;;;;;;;19.17;52.59;97962.69;4963153;28;20294;-76
2022/07/10 01:11:33;;;;;;;1.98;1.35;;;;;;;19.19;52.90;97965.84;4946996;28;20252;-76
2022/07/10 01:13:59;;;;;;;3.20;1.30;;;;;;;19.20;52.49;97969.28;4946390;28;20628;-77
2022/07/10 01:16:25;;;;;;;2.33;1.48;;;;;;;19.30;52.20;97968.38;4946439;28;20776;-76
2022/07/10 01:18:50;;;;;;;1.75;1.60;;;;;;;19.33;52.24;97967.78;4942507;28;20270;-77
2022/07/10 01:21:42;;;;;;;3.70;1.70;;;;;;;19.05;52.81;97957.00;4945909;28;20271;-77
2022/07/10 01:24:09;;;;;;;3.20;1.40;;;;;;;19.17;52.43;97967.19;4943649;28;20743;-76
2022/07/10 01:26:35;;;;;;;4.82;1.63;;;;;;;19.23;52.41;97972.13;4947508;28;20196;-76
2022/07/10 01:29:03;;;;;;;2.28;1.33;;;;;;;19.15;52.15;97974.59;4945887;28;20232;-76
2022/07/10 01:31:29;;;;;;;4.90;1.67;;;;;;;19.15;52.52;97980.66;4945998;28;20165;-76
2022/07/10 01:33:55;;;;;;;4.97;1.50;;;;;;;19.07;53.03;97970.72;4945592;28;20272;-76
2022/07/10 01:36:21;;;;;;;2.60;1.20;;;;;;;18.99;53.14;97981.91;4945588;28;20264;-77
2022/07/10 01:38:46;;;;;;;1.90;1.58;;;;;;;18.94;53.55;97982.72;4961543;28;20285;-76
2022/07/10 01:41:12;;;;;;;2.58;1.52;;;;;;;18.92;53.66;97984.06;4929474;28;20658;-76
2022/07/10 01:43:42;;;;;;;1.75;1.30;;;;;;;18.94;53.42;97989.88;4925402;28;20688;-76
2022/07/10 01:46:08;;;;;;;2.60;1.42;;;;;;;18.81;53.64;97986.75;4946062;28;20693;-77
2022/07/10 01:48:33;;;;;;;4.57;1.52;;;;;;;18.69;54.19;97987.13;4961522;28;20275;-76
2022/07/10 01:50:58;;;;;;;3.72;1.88;;;;;;;18.58;54.36;97988.28;4961864;28;20469;-76
2022/07/10 01:53:24;;;;;;;4.55;1.80;;;;;;;18.60;54.37;97988.00;4945181;28;20154;-76
2022/07/10 01:55:49;;;;;;;1.77;1.10;;;;;;;18.60;54.49;97985.38;4928666;28;20309;-76
2022/07/10 01:58:15;;;;;;;2.55;1.40;;;;;;;18.59;54.27;97989.84;4929138;28;20274;-76
2022/07/10 02:00:40;;;;;;;2.10;1.50;;;;;;;18.64;54.08;97989.03;4946957;28;20211;-77
2022/07/10 02:05:49;;;;;;;1.85;1.48;;;;;;;18.41;54.94;97985.25;4959718;28;20180;-77
2022/07/10 02:08:15;;;;;;;2.50;1.80;;;;;;;18.33;54.99;97994.53;4945028;28;20662;-76
2022/07/10 02:10:40;;;;;;;3.40;1.52;;;;;;;18.30;54.82;97995.06;4961422;28;20300;-76
2022/07/10 02:13:06;;;;;;;1.92;1.30;;;;;;;18.42;54.51;97995.53;4928456;28;20260;-76
2022/07/10 02:15:31;;;;;;;4.93;1.40;;;;;;;18.39;54.57;97997.94;4928543;28;20651;-76
2022/07/10 02:17:56;;;;;;;3.00;1.17;;;;;;;18.42;54.50;98006.09;4925147;28;20202;-76
2022/07/10 02:20:22;;;;;;;3.15;1.55;;;;;;;18.42;54.22;98002.66;4961786;28;20211;-76
2022/07/10 02:22:47;;;;;;;2.85;1.40;;;;;;;18.22;54.74;97996.47;4977823;28;20283;-76
2022/07/10 02:25:13;;;;;;;3.30;1.45;;;;;;;18.27;54.66;98003.56;4945126;28;20384;-76
2022/07/10 02:27:38;;;;;;;3.72;1.50;;;;;;;18.31;54.48;97999.28;4946531;28;20186;-76
2022/07/10 02:30:05;;;;;;;4.85;1.80;;;;;;;18.26;54.60;97999.34;4961501;28;20634;-76
2022/07/10 02:32:30;;;;;;;3.95;1.33;;;;;;;18.13;55.28;97990.97;4928590;28;20278;-76
2022/07/10 02:34:55;;;;;;;3.10;1.60;;;;;;;18.04;55.48;97997.09;4944906;28;20290;-76
2022/07/10 02:37:21;;;;;;;2.63;1.48;;;;;;;18.07;55.26;98002.59;4943419;28;20273;-76
2022/07/10 02:39:46;;;;;;;2.00;1.50;;;;;;;18.07;55.33;97996.56;4961407;28;20195;-76
2022/07/10 02:42:11;;;;;;;2.83;1.70;;;;;;;18.02;55.19;97986.81;4944511;28;20689;-76
2022/07/10 02:44:37;;;;;;;1.88;1.30;;;;;;;18.07;55.06;97993.91;4941502;28;20181;-76
2022/07/10 02:47:02;;;;;;;2.33;1.60;;;;;;;18.07;54.71;97984.16;4928328;28;20191;-76
2022/07/10 02:49:28;;;;;;;2.42;1.70;;;;;;;18.03;55.10;97985.78;4944726;28;20168;-76
2022/07/10 02:51:53;;;;;;;2.42;1.55;;;;;;;17.99;55.10;97979.44;4960910;28;20293;-76
2022/07/10 02:54:18;;;;;;;2.72;1.30;;;;;;;17.94;55.20;97990.03;4927837;28;20237;-76
2022/07/10 02:56:44;;;;;;;1.80;1.08;;;;;;;17.93;54.71;97988.47;4928168;28;20653;-76
2022/07/10 02:59:09;;;;;;;3.15;1.38;;;;;;;17.83;54.95;97983.22;4944974;28;20684;-76
2022/07/10 03:01:35;;;;;;;3.58;1.70;;;;;;;17.70;55.82;97988.03;4944346;28;20282;-77
2022/07/10 03:04:01;;;;;;;3.88;1.90;;;;;;;17.68;55.56;97991.97;4944691;28;20161;-77
2022/07/10 03:06:26;;;;;;;4.57;1.83;;;;;;;17.65;55.54;97990.69;4961164;28;20164;-77
2022/07/10 03:08:52;;;;;;;3.50;2.00;;;;;;;17.41;55.92;97993.91;4946409;28;20195;-77
2022/07/10 03:11:17;;;;;;;3.45;1.98;;;;;;;17.61;55.11;97989.63;4949404;28;20262;-76
2022/07/10 03:13:42;;;;;;;2.95;1.67;;;;;;;17.70;54.79;97985.38;4923007;28;20177;-77
2022/07/10 03:16:08;;;;;;;3.97;1.92;;;;;;;17.64;54.88;97989.09;4928107;28;20581;-77
2022/07/10 03:18:33;;;;;;;2.85;1.60;;;;;;;17.65;54.86;97985.41;4940791;28;20203;-76
2022/07/10 03:20:59;;;;;;;4.63;2.17;;;;;;;17.67;54.83;97998.31;4927736;28;20294;-76
2022/07/10 03:23:25;;;;;;;4.72;2.33;;;;;;;17.63;54.82;97990.13;4943743;28;20173;-76
2022/07/10 03:25:51;;;;;;;4.15;1.77;;;;;;;17.60;55.03;98001.22;4960376;28;20279;-76
2022/07/10 03:28:16;;;;;;;3.33;1.95;;;;;;;17.52;55.21;97996.50;4960461;28;20700;-76
2022/07/10 03:30:42;;;;;;;2.33;2.13;;;;;;;17.45;55.94;98007.34;4944011;28;20631;-76
2022/07/10 03:33:07;;;;;;;4.40;2.17;;;;;;;17.44;55.81;98004.97;4943596;28;20528;-76
2022/07/10 03:35:33;;;;;;;2.92;1.73;;;;;;;17.38;55.58;98012.88;4945864;28;20198;-77
2022/07/10 03:37:58;;;;;;;4.15;1.95;;;;;;;17.44;55.57;98010.22;4960086;28;20567;-76
2022/07/10 03:40:24;;;;;;;3.83;2.67;;;;;;;17.44;55.46;97999.69;4946963;28;20218;-76
2022/07/10 03:42:49;;;;;;;4.03;1.90;;;;;;;17.36;54.71;98009.72;4931195;28;20235;-76
2022/07/10 03:45:15;;;;;;;3.53;2.33;;;;;;;17.37;54.67;98011.28;4961235;28;20314;-76
2022/07/10 03:47:40;;;;;;;4.28;1.77;;;;;;;17.11;54.67;97999.25;4947555;28;20188;-76
2022/07/10 03:50:06;;;;;;;2.53;1.80;;;;;;;17.32;54.17;98006.03;4963806;28;20280;-77
2022/07/10 03:52:31;;;;;;;3.17;2.15;;;;;;;17.30;54.08;97999.47;4947279;28;20299;-77
2022/07/10 03:54:56;;;;;;;6.28;2.00;;;;;;;17.23;53.54;98000.53;4947411;28;20277;-76
2022/07/10 04:00:07;;;;;;;2.80;1.80;;;;;;;17.25;54.17;98010.00;4961902;28;20630;-76
2022/07/10 04:02:33;;;;;;;2.85;2.38;;;;;;;17.23;53.99;98012.91;4946903;28;20740;-76
2022/07/10 04:04:58;;;;;;;5.03;2.20;;;;;;;17.32;53.48;98018.41;4947681;28;20235;-76
2022/07/10 04:07:24;;;;;;;2.17;1.55;;;;;;;17.38;53.01;98017.34;4948850;28;20281;-76
2022/07/10 04:09:49;;;;;;;1.92;1.42;;;;;;;17.21;53.37;98004.50;4947386;28;20423;-76
2022/07/10 04:12:14;;;;;;;4.43;1.52;;;;;;;17.27;53.53;98007.91;4963485;28;20169;-76
2022/07/10 04:14:40;;;;;;;5.63;1.40;;;;;;;17.46;53.04;98014.19;4963855;28;20377;-76
2022/07/10 04:17:05;;;;;;;2.30;1.40;;;;;;;17.48;53.24;98011.25;4944501;28;20173;-76
2022/07/10 04:19:31;;;;;;;3.40;1.55;;;;;;;17.47;52.97;98007.84;4949491;28;20650;-76
2022/07/10 04:21:56;;;;;;;4.03;2.42;;;;;;;17.39;53.22;98006.56;4948391;28;20258;-76
2022/07/10 04:24:21;;;;;;;1.60;1.35;;;;;;;17.32;53.41;98003.41;4964024;28;20271;-76
2022/07/10 04:26:47;;;;;;;4.82;1.77;;;;;;;17.36;52.79;98008.94;4964055;28;20326;-77
2022/07/10 04:29:12;;;;;;;2.92;1.65;;;;;;;17.23;53.30;98005.03;4963808;28;20211;-77
2022/07/10 04:31:38;;;;;;;2.92;1.63;;;;;;;17.27;53.46;98005.28;4947146;28;20240;-77
2022/07/10 04:34:03;;;;;;;2.55;1.70;;;;;;;17.25;53.11;98000.28;4948065;28;20247;-77
2022/07/10 04:36:30;;;;;;;3.78;1.50;;;;;;;16.93;54.11;98001.41;4929871;28;20311;-77
2022/07/10 04:38:55;;;;;;;3.53;1.60;;;;;;;16.97;53.97;98002.44;4931370;28;20255;-76
2022/07/10 04:41:21;;;;;;;4.20;1.50;;;;;;;16.98;54.08;98000.56;4963355;28;20286;-76
2022/07/10 04:43:46;;;;;;;1.92;1.48;;;;;;;17.04;53.88;97997.69;4960786;28;20669;-77
2022/07/10 04:46:12;;;;;;;4.63;1.30;;;;;;;16.93;53.91;98004.03;4946807;28;20207;-77
2022/07/10 04:48:37;;;;;;;3.30;1.55;;;;;;;16.92;54.62;98004.28;4963256;28;20345;-77
2022/07/10 04:51:02;;;;;;;5.03;1.77;;;;;;;17.06;54.13;97999.28;4946603;28;20638;-77
2022/07/10 04:53:28;;;;;;;2.67;1.40;;;;;;;17.22;53.69;98006.06;4962716;28;20242;-76
2022/07/10 04:55:53;;;;;;;1.67;1.10;;;;;;;17.22;53.74;98008.69;4925771;28;20215;-76
2022/07/10 04:58:18;;;;;;;1.92;1.50;;;;;;;17.35;52.93;98008.13;4946863;28;20691;-76
2022/07/10 05:00:44;;;;;;;3.03;1.33;;;;;;;17.28;53.23;98015.53;4962276;28;20188;-77
2022/07/10 05:03:09;;;;;;;4.10;1.50;;;;;;;17.21;53.41;98012.41;4945376;28;20429;-77
2022/07/10 05:05:35;;;;;;;2.47;1.70;;;;;;;17.41;53.42;98022.88;4945798;28;20579;-76
2022/07/10 05:08:00;;;;;;;4.22;1.30;;;;;;;17.50;52.32;98020.47;4961990;28;20309;-77
2022/07/10 05:10:27;;;;;;;4.20;1.42;;;;;;;17.51;53.15;98027.34;4962106;28;20591;-76
2022/07/10 05:12:52;;;;;;;4.72;1.63;;;;;;;17.51;52.68;98031.78;4976760;28;20271;-77
2022/07/10 05:15:17;;;;;;;2.67;1.00;;;;;;;17.53;52.39;98027.03;4950229;28;20757;-76
2022/07/10 05:17:43;;;;;;;2.63;1.23;;;;;;;17.48;52.84;98027.06;4940305;28;20334;-77
2022/07/10 05:20:10;;;;;;;5.30;1.30;;;;;;;17.59;52.79;98036.50;4961964;28;20187;-77
2022/07/10 05:22:35;;;;;;;3.80;1.25;;;;;;;17.59;52.54;98033.88;4960823;28;20207;-76
2022/07/10 05:25:01;;;;;;;2.75;1.35;;;;;;;17.45;52.89;98023.13;4912464;28;20599;-77
2022/07/10 05:27:26;;;;;;;2.95;1.25;;;;;;;17.65;52.24;98024.91;4928348;28;20212;-76
2022/07/10 05:29:52;;;;;;;4.78;0.98;;;;;;;17.75;51.68;98032.78;4928781;28;20267;-76
2022/07/10 05:32:17;;;;;;;3.10;1.63;;;;;;;17.88;51.46;98028.78;4944825;28;20386;-76
2022/07/10 05:34:43;;;;;;;2.30;1.05;;;;;;;17.84;51.93;98024.28;4961804;28;20240;-76
2022/07/10 05:37:08;;;;;;;2.88;1.10;;;;;;;17.70;51.72;98032.78;4944831;28;20365;-76
2022/07/10 05:39:34;;;;;;;1.92;1.00;;;;;;;17.87;51.38;98029.06;4944562;28;20215;-77
2022/07/10 05:41:59;;;;;;;1.25;1.00;;;;;;;17.69;52.02;98041.75;4944491;28;20246;-77
2022/07/10 05:44:25;;;;;;;3.75;1.33;;;;;;;17.82;51.71;98047.50;4925602;28;20330;-77
2022/07/10 05:46:50;;;;;;;1.35;0.93;;;;;;;17.78;51.80;98053.28;4961825;28;20199;-77
2022/07/10 05:49:15;;;;;;;4.80;1.55;;;;;;;17.73;51.95;98044.63;4945244;28;20830;-76
2022/07/10 05:51:41;;;;;;;4.15;1.63;;;;;;;17.88;51.75;98046.44;4945041;28;20340;-76
2022/07/10 05:54:06;;;;;;;2.47;1.17;;;;;;;17.78;51.74;98047.25;4966342;28;20183;-76
2022/07/10 05:56:31;;;;;;;3.05;1.30;;;;;;;17.70;52.20;98051.22;4913122;28;20576;-76
2022/07/10 05:58:57;;;;;;;3.13;1.20;;;;;;;17.93;51.24;98043.78;4961748;28;20207;-77
2022/07/10 06:01:25;;;;;;;5.15;1.40;;;;;;;17.96;50.52;98035.34;4944749;28;20664;-76
2022/07/10 06:03:51;;;;;;;1.77;1.13;;;;;;;17.82;51.00;98044.84;4960831;28;20204;-76
2022/07/10 06:06:16;;;;;;;1.95;0.73;;;;;;;17.81;51.48;98046.72;4961812;28;20320;-76
2022/07/10 06:08:45;;;;;;;3.90;0.95;;;;;;;18.03;50.35;98043.75;4944753;28;20758;-76
2022/07/10 06:11:11;;;;;;;2.28;0.80;;;;;;;18.33;49.08;98042.00;4928506;28;20653;-76
2022/07/10 06:13:37;;;;;;;2.53;0.70;;;;;;;18.25;50.56;98051.28;4944826;28;20223;-76
2022/07/10 06:16:04;;;;;;;1.38;0.77;;;;;;;18.40;50.35;98050.38;4961324;28;20211;-76
2022/07/10 06:18:30;;;;;;;4.53;0.90;;;;;;;18.59;49.82;98055.00;4941394;28;20525;-76
2022/07/10 06:20:55;;;;;;;2.22;0.70;;;;;;;18.42;49.18;98058.81;4945624;28;20260;-77
2022/07/10 06:23:21;;;;;;;1.95;0.50;;;;;;;18.24;47.81;98062.09;4944927;28;20097;-76
2022/07/10 06:25:48;;;;;;;1.35;0.68;;;;;;;17.62;49.37;98064.94;4913216;28;20578;-78
2022/07/10 06:28:14;;;;;;;2.50;0.70;;;;;;;17.64;48.46;98070.72;4929297;28;20194;-75
2022/07/10 06:30:39;;;;;;;1.98;0.63;;;;;;;17.66;48.20;98073.88;4945425;28;20218;-76
2022/07/10 06:33:04;;;;;;;3.03;0.50;;;;;;;18.13;47.42;98066.63;4946699;28;20308;-77
2022/07/10 06:35:30;;;;;;;1.17;0.43;;;;;;;18.25;47.36;98061.00;4942877;28;20656;-77
2022/07/10 06:37:55;;;;;;;2.38;0.57;;;;;;;17.87;47.72;98074.66;4946528;28;20252;-77
2022/07/10 06:40:21;;;;;;;4.47;1.00;;;;;;;17.74;47.39;98073.34;4978078;28;20285;-77
2022/07/10 06:42:46;;;;;;;1.95;0.50;;;;;;;18.01;47.29;98071.41;4944675;28;20199;-76
2022/07/10 06:45:12;;;;;;;3.35;0.50;;;;;;;18.56;46.38;98072.19;4971817;28;20172;-76
2022/07/10 06:47:57;;;;;;;1.65;0.50;;;;;;;18.52;45.78;98064.03;4961252;28;20551;-76
2022/07/10 06:50:30;;;;;;;2.13;0.60;;;;;;;18.44;46.34;98056.69;4942651;28;20191;-76
2022/07/10 06:52:55;;;;;;;1.45;0.70;;;;;;;18.10;46.03;98057.41;4942001;28;20223;-76
2022/07/10 06:55:21;;;;;;;3.55;0.75;;;;;;;17.92;46.40;98068.56;4944415;28;20209;-77
2022/07/10 06:57:47;;;;;;;1.20;0.47;;;;;;;18.04;45.76;98052.44;4909381;28;20180;-77
2022/07/10 07:00:13;;;;;;;1.58;0.50;;;;;;;18.18;44.84;98055.25;4925425;28;20173;-77
2022/07/10 07:02:39;;;;;;;1.42;0.60;;;;;;;18.52;44.66;98050.03;4960661;28;20254;-76
2022/07/10 07:05:05;;;;;;;1.67;0.40;;;;;;;19.15;43.99;98051.94;4944452;28;20249;-76
2022/07/10 07:07:30;;;;;;;1.95;0.60;;;;;;;19.34;44.52;98062.59;4944233;28;20637;-77
2022/07/10 07:09:56;;;;;;;0.60;0.30;;;;;;;18.87;41.52;98066.72;4961299;28;20261;-76
2022/07/10 07:12:21;;;;;;;3.20;0.50;;;;;;;18.97;41.75;98060.53;4946192;28;20266;-76
2022/07/10 07:14:47;;;;;;;1.65;0.40;;;;;;;18.65;42.74;98070.53;4928063;28;20342;-77
2022/07/10 07:17:14;;;;;;;0.93;0.40;;;;;;;18.63;43.06;98067.38;4942343;28;20287;-77
2022/07/10 07:25:09;;;;;;;1.73;0.65;;;;;;;18.95;42.22;98052.13;4958254;28;20700;-77
2022/07/10 07:27:36;;;;;;;2.20;0.40;;;;;;;18.88;42.27;98058.53;4944236;28;20634;-77
2022/07/10 07:30:04;;;;;;;0.57;0.30;;;;;;;19.53;41.25;98053.94;4944388;28;20105;-77
2022/07/10 07:32:30;;;;;;;1.88;0.30;;;;;;;19.60;41.36;98068.41;4943911;28;20238;-77
2022/07/10 07:34:55;;;;;;;1.95;0.60;;;;;;;19.70;41.16;98058.78;4945982;28;20286;-76
2022/07/10 07:37:20;;;;;;;1.13;0.40;;;;;;;19.61;41.31;98064.69;4944261;28;20622;-78
2022/07/10 07:39:46;;;;;;;1.63;0.30;;;;;;;19.49;41.76;98066.16;4942678;28;20665;-77
2022/07/10 07:42:11;;;;;;;2.08;0.50;;;;;;;19.12;42.37;98070.97;4943967;28;20271;-77
2022/07/10 07:44:36;;;;;;;2.63;0.43;;;;;;;19.59;41.83;98073.97;4925597;28;20227;-77
2022/07/10 07:47:02;;;;;;;1.27;0.50;;;;;;;19.65;41.74;98070.19;4927847;28;20792;-77
2022/07/10 07:49:27;;;;;;;2.30;0.60;;;;;;;19.56;41.92;98067.38;4911452;28;20642;-77
2022/07/10 07:51:53;;;;;;;1.25;0.30;;;;;;;19.87;41.73;98069.72;4927656;28;20242;-77
2022/07/10 07:54:18;;;;;;;2.65;0.50;;;;;;;20.46;40.74;98072.09;4943747;28;20205;-77
2022/07/10 07:56:43;;;;;;;1.45;0.60;;;;;;;21.03;39.51;98074.72;4944340;28;20267;-77
2022/07/10 07:59:10;;;;;;;1.42;0.50;;;;;;;21.11;38.55;98069.53;4960396;28;20223;-78
2022/07/10 08:01:36;;;;;;;1.27;0.40;;;;;;;21.06;38.41;98074.13;4943755;28;20279;-77
2022/07/10 08:04:01;;;;;;;1.65;0.40;;;;;;;20.84;38.88;98066.84;4943883;28;20372;-77
2022/07/10 08:06:26;;;;;;;4.22;1.85;;;;;;;20.84;38.13;98066.84;4944048;28;20665;-77
2022/07/10 08:08:52;;;;;;;1.70;0.50;;;;;;;20.01;39.16;98078.53;4945371;28;20253;-76
2022/07/10 08:11:17;;;;;;;1.83;0.50;;;;;;;19.96;40.04;98085.72;4944024;28;20188;-77
2022/07/10 08:13:43;;;;;;;2.78;0.45;;;;;;;19.58;40.50;98081.09;4960368;28;20212;-77
2022/07/10 08:16:08;;;;;;;3.83;0.60;;;;;;;19.49;41.07;98080.13;4927797;28;20208;-76
2022/07/10 08:18:34;;;;;;;1.42;0.35;;;;;;;19.54;40.11;98084.59;4927053;28;20259;-76
2022/07/10 08:20:59;;;;;;;2.33;0.40;;;;;;;19.75;39.75;98064.03;4943676;28;20335;-77
2022/07/10 08:23:24;;;;;;;2.83;0.50;;;;;;;19.99;40.21;98067.44;4959958;28;20196;-77
2022/07/10 08:25:50;;;;;;;2.10;0.50;;;;;;;20.27;39.18;98067.63;4943939;28;20771;-76
2022/07/10 08:28:15;;;;;;;1.67;0.57;;;;;;;20.69;38.87;98058.03;4931234;28;20211;-77
2022/07/10 08:30:42;;;;;;;2.10;0.50;;;;;;;21.10;37.81;98060.03;4946969;28;20730;-77
2022/07/10 08:33:08;;;;;;;2.58;0.93;;;;;;;21.56;37.33;98060.28;4947015;28;20274;-77
2022/07/10 08:35:33;;;;;;;1.77;0.30;;;;;;;21.70;37.00;98075.13;4947186;28;20325;-77
2022/07/10 08:37:59;;;;;;;0.80;0.63;;;;;;;22.05;36.72;98072.03;4946983;28;20318;-77
2022/07/10 08:40:25;;;;;;;1.02;0.30;;;;;;;22.21;36.26;98068.00;4946892;28;20223;-76
2022/07/10 08:42:50;;;;;;;1.17;0.50;;;;;;;22.57;34.41;98061.16;4963069;28;20641;-76
2022/07/10 08:45:16;;;;;;;1.10;0.40;;;;;;;22.57;34.54;98067.22;4961495;28;20245;-77
2022/07/10 08:47:42;;;;;;;1.63;0.40;;;;;;;22.95;34.80;98055.47;4930474;28;20779;-77
2022/07/10 08:50:22;;;;;;;0.73;0.30;;;;;;;22.91;33.95;98055.28;4948374;28;20738;-77
2022/07/10 08:52:55;;;;;;;1.42;0.50;;;;;;;22.34;34.77;98060.31;4946339;28;20342;-77
2022/07/10 08:55:24;;;;;;;1.38;0.40;;;;;;;22.42;34.99;98054.31;4962365;28;20627;-77
2022/07/10 08:57:50;;;;;;;4.07;0.47;;;;;;;22.02;36.19;98062.03;4930758;28;20327;-77
2022/07/10 09:00:16;;;;;;;3.15;0.40;;;;;;;22.16;35.71;98057.50;4946099;28;20273;-77
2022/07/10 09:02:42;;;;;;;3.42;0.52;;;;;;;22.68;34.78;98051.06;4930084;28;20410;-77
2022/07/10 09:05:08;;;;;;;1.27;0.40;;;;;;;22.39;34.87;98049.59;4946588;28;20287;-77
2022/07/10 09:07:37;;;;;;;1.23;0.70;;;;;;;22.08;35.19;98058.19;4946422;28;20199;-77
2022/07/10 09:10:08;;;;;;;1.80;0.40;;;;;;;22.30;35.09;98052.19;4929739;28;20211;-76
2022/07/10 09:12:56;;;;;;;3.25;0.80;;;;;;;22.74;34.28;98039.22;4947808;28;20188;-76
2022/07/10 09:15:26;;;;;;;2.70;0.50;;;;;;;22.50;34.46;98035.03;4946472;28;20294;-76
2022/07/10 09:18:05;;;;;;;1.85;0.30;;;;;;;22.40;35.89;98037.91;4930470;28;20172;-76
2022/07/10 09:20:32;;;;;;;1.73;0.60;;;;;;;23.22;33.79;98029.81;4946147;28;20249;-76
2022/07/10 09:23:18;;;;;;;1.25;0.50;;;;;;;23.02;33.83;98037.22;4945549;28;20173;-77
2022/07/10 09:25:45;;;;;;;1.42;0.98;;;;;;;23.40;33.22;98036.78;4929404;28;20455;-76
2022/07/10 09:28:11;;;;;;;2.30;0.88;;;;;;;23.77;34.00;98039.22;4913613;28;20165;-77
2022/07/10 09:30:38;;;;;;;1.50;0.73;;;;;;;24.18;31.88;98048.72;4946047;28;20329;-76
2022/07/10 09:33:30;;;;;;;2.53;0.80;;;;;;;24.15;31.12;98044.81;4928987;28;20191;-76
2022/07/10 09:36:10;;;;;;;1.60;0.80;;;;;;;24.03;32.56;98040.09;4946175;28;20249;-76
2022/07/10 09:38:44;;;;;;;1.25;0.45;;;;;;;24.54;31.50;98042.28;4945393;28;20292;-77
2022/07/10 09:41:16;;;;;;;1.60;0.50;;;;;;;24.67;31.81;98042.16;4947084;28;20196;-77
2022/07/10 09:43:46;;;;;;;2.92;0.60;;;;;;;24.53;31.69;98046.06;4945743;28;20417;-77
2022/07/10 09:46:12;;;;;;;1.77;0.77;;;;;;;25.17;29.81;98032.00;4961464;28;20242;-77
2022/07/10 09:48:37;;;;;;;0.93;0.77;;;;;;;25.16;29.29;98025.13;4945428;28;20277;-76
2022/07/10 09:51:06;;;;;;;1.27;0.50;;;;;;;24.69;30.02;98025.84;4961834;28;20164;-76
2022/07/10 09:53:32;;;;;;;0.90;0.60;;;;;;;24.98;29.35;98035.03;4945130;28;20243;-76
2022/07/10 09:56:00;;;;;;;1.08;0.50;;;;;;;25.21;28.84;98035.59;4945292;28;20290;-76
2022/07/10 09:58:29;;;;;;;1.50;0.85;;;;;;;24.98;29.11;98027.06;4929344;28;20753;-76
2022/07/10 10:00:55;;;;;;;1.20;0.55;;;;;;;24.93;30.06;98035.22;4928403;28;20198;-77
2022/07/10 10:03:21;;;;;;;1.98;0.70;;;;;;;25.26;29.13;98032.00;4913110;28;20171;-76
2022/07/10 10:05:59;;;;;;;2.72;0.80;;;;;;;24.99;29.28;98037.38;4929055;28;20238;-76
2022/07/10 10:08:28;;;;;;;1.77;0.85;;;;;;;24.81;30.08;98020.69;4945493;28;20704;-76
2022/07/10 10:10:56;;;;;;;0.50;0.40;;;;;;;24.86;29.37;98015.19;4960969;28;20172;-75
2022/07/10 10:13:23;;;;;;;3.58;0.60;;;;;;;24.75;30.05;98027.25;4928859;28;20630;-76
2022/07/10 10:15:50;;;;;;;1.25;0.40;;;;;;;25.28;29.16;98027.16;4945242;28;20250;-76
2022/07/10 10:18:21;;;;;;;1.63;0.70;;;;;;;25.49;29.92;98017.31;4928904;28;20278;-76
2022/07/10 10:20:47;;;;;;;2.67;0.70;;;;;;;25.94;28.56;98011.44;4912108;28;20200;-77
2022/07/10 10:23:17;;;;;;;1.35;0.50;;;;;;;26.09;28.62;98002.03;4936810;28;20205;-77
2022/07/10 10:25:43;;;;;;;3.03;0.65;;;;;;;25.55;28.59;98008.03;4950658;28;20303;-76
2022/07/10 10:28:09;;;;;;;1.75;0.73;;;;;;;25.68;29.03;98008.88;4942188;28;20169;-77
2022/07/10 10:30:40;;;;;;;2.58;0.70;;;;;;;26.05;29.48;98005.72;4925479;28;20282;-76
2022/07/10 10:33:32;;;;;;;3.78;0.70;;;;;;;26.10;28.27;98013.53;4941825;28;20220;-76
2022/07/10 10:35:58;;;;;;;1.40;0.60;;;;;;;26.56;27.92;98005.56;4940764;28;20180;-76
2022/07/10 10:38:23;;;;;;;1.15;0.50;;;;;;;27.37;26.45;97988.03;4944521;28;20653;-76
2022/07/10 10:40:49;;;;;;;1.25;0.57;;;;;;;26.94;27.97;98000.03;4928080;28;20196;-77
2022/07/10 10:43:24;;;;;;;3.22;0.80;;;;;;;26.70;27.47;97998.09;4943667;28;20326;-75
2022/07/10 10:45:52;;;;;;;1.50;1.00;;;;;;;26.61;27.96;97992.78;4973931;28;20185;-76
2022/07/10 10:48:20;;;;;;;1.60;0.80;;;;;;;26.67;27.46;97999.53;4960560;28;20649;-77
2022/07/10 10:50:49;;;;;;;2.17;0.70;;;;;;;27.20;25.55;97993.59;4960125;28;20271;-76
2022/07/10 10:53:28;;;;;;;1.58;0.50;;;;;;;26.51;27.80;97994.00;4943897;28;20307;-76
2022/07/10 10:56:00;;;;;;;3.00;0.90;;;;;;;26.40;27.54;97998.19;4976667;28;20172;-76
2022/07/10 10:58:42;;;;;;;1.20;0.65;;;;;;;26.76;27.42;97990.63;4944722;28;20238;-77
2022/07/10 11:01:20;;;;;;;0.98;0.65;;;;;;;26.62;28.14;97990.91;4976684;28;20735;-76
2022/07/10 11:04:04;;;;;;;2.67;0.85;;;;;;;26.67;27.27;97994.16;4944325;28;20266;-77
2022/07/10 11:06:44;;;;;;;3.25;0.93;;;;;;;26.65;27.55;97996.41;4944422;28;20720;-75
2022/07/10 11:09:24;;;;;;;1.42;1.20;;;;;;;26.58;26.90;97996.13;4945749;28;20713;-76
2022/07/10 11:12:09;;;;;;;2.85;0.70;;;;;;;26.54;27.18;97973.84;4927804;28;20699;-76
2022/07/10 11:14:37;;;;;;;2.33;0.80;;;;;;;27.03;27.78;97982.00;4944239;28;20241;-77
2022/07/10 11:17:03;;;;;;;1.80;0.77;;;;;;;26.35;27.95;97993.81;4944535;28;20294;-76
2022/07/10 11:19:30;;;;;;;2.30;0.80;;;;;;;26.76;27.28;97980.72;4928292;28;20740;-76
2022/07/10 11:22:39;;;;;;;1.20;1.00;;;;;;;26.44;27.81;97979.59;4924980;28;20217;-76
2022/07/10 11:25:20;;;;;;;1.05;0.60;;;;;;;26.28;28.12;97982.88;4936055;28;20237;-76
2022/07/10 11:28:12;;;;;;;1.38;0.77;;;;;;;25.87;28.51;97986.34;4938908;28;20184;-77
2022/07/10 11:30:46;;;;;;;1.23;0.50;;;;;;;26.04;28.99;98001.47;4928125;28;20704;-76
2022/07/10 11:33:12;;;;;;;2.13;0.70;;;;;;;26.08;28.43;97983.69;4945823;28;20262;-77
2022/07/10 11:35:41;;;;;;;1.70;0.90;;;;;;;25.75;28.84;97982.47;4944174;28;20242;-76
2022/07/10 11:38:06;;;;;;;1.95;1.08;;;;;;;26.01;28.83;97989.53;4943833;28;20164;-75
2022/07/10 11:40:36;;;;;;;2.25;0.95;;;;;;;26.01;28.87;97994.09;4927537;28;20298;-77
2022/07/10 11:43:04;;;;;;;1.83;0.80;;;;;;;25.09;29.71;97985.66;4960236;28;20173;-78
2022/07/10 11:45:36;;;;;;;1.58;0.77;;;;;;;24.37;31.04;97990.66;4943485;28;20192;-76